Time;durP1;ratioP1;P1;durP2;ratioP2;P2;SDS_P1;SDS_P2;PMS_P1;PMS_P2;Temp;Humidity;BMP_temperature;BMP_pressure;BME280_temperature;BME280_humidity;BME280_pressure;Samples;Min_cycle;Max_cycle;Signal;HPM_P1;HPM_P2
2023/05/16 00:05:16;;;;;;;3.77;1.30;;;22.80;99.90;;;;;;5071570;28;20609;-69
2023/05/16 00:07:45;;;;;;;1.10;1.00;;;22.80;99.90;;;;;;5071964;28;20198;-69
2023/05/16 00:10:14;;;;;;;2.97;1.30;;;23.10;99.90;;;;;;5071786;28;20184;-72
2023/05/16 00:12:43;;;;;;;1.77;1.20;;;23.30;99.90;;;;;;5071960;28;20216;-72
2023/05/16 00:15:13;;;;;;;3.47;1.30;;;23.50;99.90;;;;;;5071688;28;20245;-71
2023/05/16 00:17:42;;;;;;;2.30;1.50;;;23.20;99.90;;;;;;5071968;28;20184;-72
2023/05/16 00:20:10;;;;;;;1.60;1.10;;;22.80;99.90;;;;;;5071752;28;20168;-71
2023/05/16 00:22:38;;;;;;;6.10;1.30;;;23.30;99.90;;;;;;5071642;28;20649;-71
2023/05/16 00:25:06;;;;;;;1.57;1.10;;;23.30;99.90;;;;;;5071550;28;20253;-71
2023/05/16 00:27:36;;;;;;;2.07;1.07;;;23.20;99.90;;;;;;5071570;28;20191;-71
2023/05/16 00:30:05;;;;;;;3.77;1.27;;;23.30;99.90;;;;;;5071577;28;20183;-71
2023/05/16 00:32:32;;;;;;;3.80;1.23;;;23.50;99.90;;;;;;5071193;28;20586;-71
2023/05/16 00:35:00;;;;;;;2.47;1.30;;;23.70;99.90;;;;;;5071242;28;20176;-72
2023/05/16 00:37:27;;;;;;;3.23;1.17;;;23.60;99.90;;;;;;5070820;28;20333;-73
2023/05/16 00:39:55;;;;;;;1.40;1.30;;;23.60;99.90;;;;;;5070966;28;20541;-70
2023/05/16 00:42:22;;;;;;;2.77;1.40;;;23.50;99.90;;;;;;5071333;28;20187;-72
2023/05/16 00:44:50;;;;;;;1.80;1.07;;;23.30;99.90;;;;;;5069230;28;20184;-72
2023/05/16 00:47:17;;;;;;;2.10;1.23;;;23.40;99.90;;;;;;5070955;28;20187;-69
2023/05/16 00:49:44;;;;;;;1.63;1.00;;;23.10;99.90;;;;;;5069815;28;20206;-70
2023/05/16 00:52:12;;;;;;;3.33;1.27;;;23.70;99.90;;;;;;5071324;28;20208;-71
2023/05/16 00:54:39;;;;;;;3.70;1.33;;;23.90;99.90;;;;;;5070734;28;20257;-70
2023/05/16 00:57:07;;;;;;;1.83;1.07;;;24.30;99.90;;;;;;5071059;28;20183;-71
2023/05/16 00:59:35;;;;;;;1.60;1.30;;;24.20;99.90;;;;;;5071331;28;20187;-69
2023/05/16 01:02:02;;;;;;;1.00;0.90;;;24.00;99.90;;;;;;5071349;28;20184;-70
2023/05/16 01:04:31;;;;;;;2.00;1.20;;;24.40;99.90;;;;;;5070971;28;20254;-70
2023/05/16 01:06:59;;;;;;;1.50;1.00;;;24.60;99.90;;;;;;5070618;28;20191;-70
2023/05/16 01:09:27;;;;;;;3.33;1.27;;;24.60;99.90;;;;;;5073972;28;20210;-71
2023/05/16 01:12:00;;;;;;;1.50;1.20;;;24.70;99.90;;;;;;5074647;28;20294;-70
2023/05/16 01:14:48;;;;;;;2.47;1.37;;;24.30;99.90;;;;;;5074431;28;20203;-70
2023/05/16 01:17:22;;;;;;;1.30;1.20;;;24.20;99.90;;;;;;5074314;28;20549;-71
2023/05/16 01:20:03;;;;;;;1.63;1.20;;;24.50;99.90;;;;;;5074650;28;20204;-71
2023/05/16 01:22:47;;;;;;;7.27;1.40;;;25.00;99.90;;;;;;5074277;28;20531;-71
2023/05/16 01:25:17;;;;;;;2.70;1.40;;;24.60;99.90;;;;;;5074447;28;20180;-72
2023/05/16 01:27:46;;;;;;;2.23;1.30;;;24.80;99.90;;;;;;5073833;28;20192;-70
2023/05/16 01:30:18;;;;;;;2.33;0.90;;;24.70;99.90;;;;;;5073712;28;20600;-71
2023/05/16 01:32:46;;;;;;;4.97;1.20;;;24.70;99.90;;;;;;5074218;28;20222;-71
2023/05/16 01:35:15;;;;;;;1.57;1.10;;;24.60;99.90;;;;;;5074154;28;20172;-71
2023/05/16 01:38:10;;;;;;;1.27;1.13;;;24.70;99.90;;;;;;5074327;28;20567;-71
2023/05/16 01:40:59;;;;;;;2.37;1.30;;;24.20;99.90;;;;;;5073868;28;20846;-72
2023/05/16 01:43:48;;;;;;;2.90;1.10;;;24.10;99.90;;;;;;5074340;28;20656;-71
2023/05/16 01:46:26;;;;;;;2.77;1.07;;;24.30;99.90;;;;;;5074092;28;20175;-71
2023/05/16 01:49:16;;;;;;;2.73;1.23;;;24.80;99.90;;;;;;5074077;28;20282;-72
2023/05/16 01:51:49;;;;;;;2.47;1.40;;;24.90;99.90;;;;;;5073096;28;20177;-72
2023/05/16 01:54:19;;;;;;;1.17;1.07;;;24.90;99.90;;;;;;5073774;28;20214;-72
2023/05/16 01:56:56;;;;;;;2.43;1.00;;;24.90;99.90;;;;;;5073658;28;20176;-71
2023/05/16 01:59:25;;;;;;;2.00;1.30;;;24.80;98.50;;;;;;5073672;28;20268;-72
2023/05/16 02:01:57;;;;;;;1.63;1.10;;;24.70;99.30;;;;;;5073598;28;20212;-72
2023/05/16 02:04:25;;;;;;;3.60;1.23;;;24.60;98.40;;;;;;5073290;28;20188;-70
2023/05/16 02:06:52;;;;;;;2.97;1.20;;;25.00;96.40;;;;;;5073429;28;20668;-71
2023/05/16 02:09:20;;;;;;;2.20;1.60;;;25.40;92.20;;;;;;5073712;28;20275;-71
2023/05/16 02:11:47;;;;;;;1.20;1.10;;;25.10;89.30;;;;;;5071321;28;20184;-71
2023/05/16 02:14:15;;;;;;;3.23;1.10;;;25.20;84.00;;;;;;5072845;28;20192;-69
2023/05/16 02:16:42;;;;;;;2.27;1.50;;;24.90;83.40;;;;;;5073014;28;20176;-71
2023/05/16 02:19:10;;;;;;;1.20;1.00;;;24.90;89.80;;;;;;5072702;28;20188;-69
2023/05/16 02:21:37;;;;;;;2.10;1.10;;;25.10;90.40;;;;;;5072865;28;20275;-71
2023/05/16 02:24:05;;;;;;;1.97;1.33;;;25.30;80.80;;;;;;5072289;28;20222;-69
2023/05/16 02:26:32;;;;;;;6.93;1.70;;;25.10;80.40;;;;;;5073098;28;20203;-70
2023/05/16 02:28:59;;;;;;;1.27;1.17;;;25.50;81.40;;;;;;5073221;28;20180;-72
2023/05/16 02:31:31;;;;;;;3.37;1.33;;;25.20;77.70;;;;;;5072934;28;20672;-71
2023/05/16 02:34:00;;;;;;;1.80;1.23;;;25.40;74.40;;;;;;5073013;28;20665;-71
2023/05/16 02:36:27;;;;;;;2.30;1.43;;;25.60;74.10;;;;;;5072893;28;20693;-72
2023/05/16 02:38:55;;;;;;;3.40;1.33;;;25.10;67.60;;;;;;5072865;28;20259;-72
2023/05/16 02:41:22;;;;;;;1.40;1.20;;;25.20;68.10;;;;;;5073095;28;20180;-72
2023/05/16 02:43:50;;;;;;;9.60;1.20;;;25.10;71.80;;;;;;5072612;28;20192;-71
2023/05/16 02:46:26;;;;;;;3.97;1.50;;;25.50;69.80;;;;;;5072914;28;20179;-71
2023/05/16 02:48:54;;;;;;;4.07;1.40;;;25.90;64.00;;;;;;5072873;28;20716;-72
2023/05/16 02:51:24;;;;;;;2.00;1.40;;;25.80;63.60;;;;;;5072670;28;20188;-72
2023/05/16 02:53:52;;;;;;;2.17;1.23;;;25.50;63.40;;;;;;5072421;28;20303;-71
2023/05/16 02:56:20;;;;;;;1.57;1.20;;;25.90;62.10;;;;;;5072810;28;20190;-71
2023/05/16 02:58:49;;;;;;;1.20;1.03;;;25.90;61.20;;;;;;5072579;28;20603;-73
2023/05/16 03:01:17;;;;;;;1.50;1.30;;;26.20;63.40;;;;;;5072653;28;20198;-72
2023/05/16 03:03:45;;;;;;;2.17;1.30;;;26.30;58.20;;;;;;5072433;28;20180;-72
2023/05/16 03:06:12;;;;;;;3.50;1.30;;;26.20;57.20;;;;;;5072371;28;20182;-72
2023/05/16 03:08:40;;;;;;;1.67;1.43;;;25.60;58.40;;;;;;5072771;28;20180;-70
2023/05/16 03:11:07;;;;;;;2.37;1.33;;;25.80;59.20;;;;;;5071115;28;20656;-71
2023/05/16 03:13:35;;;;;;;2.00;1.23;;;26.00;56.00;;;;;;5071919;28;20368;-71
2023/05/16 03:16:02;;;;;;;3.07;1.90;;;25.70;51.90;;;;;;5072351;28;20175;-71
2023/05/16 03:18:30;;;;;;;2.03;1.30;;;25.40;54.70;;;;;;5072184;28;20191;-72
2023/05/16 03:20:57;;;;;;;2.23;1.30;;;25.70;55.20;;;;;;5072203;28;20365;-72
2023/05/16 03:23:25;;;;;;;2.13;1.47;;;25.80;52.80;;;;;;5071981;28;20238;-71
2023/05/16 03:25:53;;;;;;;3.30;1.83;;;26.00;55.70;;;;;;5072210;28;20180;-71
2023/05/16 03:28:20;;;;;;;3.07;1.60;;;26.00;53.30;;;;;;5072108;28;20219;-71
2023/05/16 03:30:47;;;;;;;1.80;1.50;;;26.10;54.70;;;;;;5071521;28;20229;-71
2023/05/16 03:33:15;;;;;;;3.73;1.57;;;25.70;50.20;;;;;;5071773;28;20214;-72
2023/05/16 03:35:43;;;;;;;2.70;1.57;;;25.70;54.80;;;;;;5071827;28;20623;-72
2023/05/16 03:38:11;;;;;;;2.13;1.60;;;26.00;48.30;;;;;;5071976;28;20180;-71
2023/05/16 03:40:39;;;;;;;3.40;1.80;;;26.30;51.40;;;;;;5071689;28;20261;-71
2023/05/16 03:43:06;;;;;;;1.73;1.60;;;26.40;46.60;;;;;;5071670;28;20187;-71
2023/05/16 03:45:34;;;;;;;3.10;1.57;;;26.60;48.70;;;;;;5070459;28;20544;-71
2023/05/16 03:48:01;;;;;;;2.90;1.83;;;26.40;47.10;;;;;;5071623;28;20267;-70
2023/05/16 03:50:28;;;;;;;2.60;1.87;;;25.60;48.00;;;;;;5071359;28;20191;-70
2023/05/16 03:52:56;;;;;;;4.30;2.03;;;25.40;50.80;;;;;;5071596;28;20650;-71
2023/05/16 03:55:23;;;;;;;2.07;1.77;;;25.60;51.00;;;;;;5071779;28;20172;-72
2023/05/16 03:57:52;;;;;;;2.27;1.70;;;25.70;50.80;;;;;;5071781;28;20688;-72
2023/05/16 04:00:19;;;;;;;4.37;1.60;;;25.90;49.60;;;;;;5071326;28;20263;-71
2023/05/16 04:02:46;;;;;;;3.30;2.10;;;26.00;47.30;;;;;;5071065;28;20184;-71
2023/05/16 04:05:14;;;;;;;3.97;1.83;;;25.90;48.90;;;;;;5067227;28;20184;-72
2023/05/16 04:07:41;;;;;;;3.03;1.80;;;26.20;51.60;;;;;;5071407;28;20278;-71
2023/05/16 04:10:10;;;;;;;3.03;2.10;;;26.10;50.90;;;;;;5071552;28;20176;-73
2023/05/16 04:12:37;;;;;;;2.07;1.87;;;25.90;49.80;;;;;;5071749;28;20206;-70
2023/05/16 04:15:06;;;;;;;3.73;1.87;;;25.70;51.80;;;;;;5070897;28;20219;-72
2023/05/16 04:17:34;;;;;;;2.70;1.80;;;25.90;55.20;;;;;;5071306;28;20180;-72
2023/05/16 04:20:03;;;;;;;2.13;1.60;;;26.00;52.30;;;;;;5070502;28;20671;-70
2023/05/16 04:22:30;;;;;;;2.10;1.40;;;26.00;50.90;;;;;;5070694;28;20666;-72
2023/05/16 04:24:58;;;;;;;2.03;1.20;;;25.80;48.60;;;;;;5069529;28;20600;-72
2023/05/16 04:27:25;;;;;;;4.20;1.60;;;25.20;50.00;;;;;;5071252;28;20180;-71
2023/05/16 04:29:53;;;;;;;2.80;1.50;;;25.30;52.90;;;;;;5071201;28;20242;-70
2023/05/16 04:32:20;;;;;;;1.67;1.20;;;25.30;52.50;;;;;;5071245;28;20212;-71
2023/05/16 04:34:48;;;;;;;3.17;1.43;;;25.20;49.40;;;;;;5069887;28;20613;-71
2023/05/16 04:37:16;;;;;;;3.77;1.50;;;25.50;52.00;;;;;;5071170;28;20242;-71
2023/05/16 04:39:43;;;;;;;2.23;1.27;;;25.60;53.30;;;;;;5071137;28;20168;-71
2023/05/16 04:42:10;;;;;;;1.97;1.47;;;25.50;50.30;;;;;;5071020;28;20263;-71
2023/05/16 04:44:38;;;;;;;1.60;1.40;;;25.30;49.80;;;;;;5074441;28;20229;-71
2023/05/16 04:47:06;;;;;;;2.13;1.17;;;25.00;47.20;;;;;;5074949;28;20689;-71
2023/05/16 04:49:33;;;;;;;2.80;1.23;;;25.00;46.20;;;;;;5075076;28;20176;-71
2023/05/16 04:52:01;;;;;;;1.27;1.17;;;24.90;48.30;;;;;;5074774;28;20286;-72
2023/05/16 04:54:28;;;;;;;1.70;1.37;;;25.00;47.20;;;;;;5075017;28;20254;-71
2023/05/16 04:56:56;;;;;;;1.23;1.13;;;24.90;48.60;;;;;;5074925;28;20243;-70
2023/05/16 04:59:23;;;;;;;1.43;1.33;;;24.80;48.30;;;;;;5074399;28;20195;-71
2023/05/16 05:01:50;;;;;;;1.80;1.30;;;24.50;51.60;;;;;;5074810;28;20180;-72
2023/05/16 05:04:18;;;;;;;1.70;1.40;;;24.60;50.10;;;;;;5074144;28;20641;-71
2023/05/16 05:06:45;;;;;;;1.33;1.23;;;24.50;52.50;;;;;;5074349;28;20182;-71
2023/05/16 05:09:13;;;;;;;2.33;1.67;;;24.50;55.00;;;;;;5074245;28;20696;-71
2023/05/16 05:11:40;;;;;;;1.50;1.20;;;24.30;53.00;;;;;;5074434;28;20639;-72
2023/05/16 05:14:07;;;;;;;2.10;1.43;;;24.30;56.20;;;;;;5074378;28;20237;-71
2023/05/16 05:16:36;;;;;;;4.30;1.60;;;24.40;54.80;;;;;;5074086;28;20215;-69
2023/05/16 05:19:03;;;;;;;2.50;1.30;;;24.40;56.50;;;;;;5074317;28;20183;-71
2023/05/16 05:21:31;;;;;;;1.40;1.20;;;24.60;57.90;;;;;;5074319;28;20180;-71
2023/05/16 05:23:58;;;;;;;1.17;0.93;;;24.60;78.10;;;;;;5074389;28;20203;-72
2023/05/16 05:26:27;;;;;;;3.60;1.40;;;24.20;91.50;;;;;;5074257;28;20542;-71
2023/05/16 05:28:55;;;;;;;2.50;1.37;;;24.10;95.20;;;;;;5073949;28;20226;-72
2023/05/16 05:31:22;;;;;;;3.27;1.10;;;24.00;95.90;;;;;;5074192;28;20184;-72
2023/05/16 05:33:49;;;;;;;2.83;1.20;;;23.70;99.80;;;;;;5074196;28;20216;-71
2023/05/16 05:36:17;;;;;;;2.20;1.30;;;23.40;99.90;;;;;;5072598;28;20715;-72
2023/05/16 05:38:44;;;;;;;1.83;1.40;;;23.10;99.90;;;;;;5073091;28;20218;-70
2023/05/16 05:41:12;;;;;;;4.60;1.70;;;22.80;99.90;;;;;;5073986;28;20190;-71
2023/05/16 05:43:39;;;;;;;3.13;1.53;;;22.70;99.90;;;;;;5073850;28;20649;-69
2023/05/16 05:46:07;;;;;;;3.47;1.80;;;22.50;99.90;;;;;;5073846;28;20668;-71
2023/05/16 05:48:34;;;;;;;3.60;1.60;;;22.30;99.90;;;;;;5072962;28;20207;-71
2023/05/16 05:51:02;;;;;;;3.00;1.50;;;22.00;99.90;;;;;;5072437;28;20179;-70
2023/05/16 05:53:29;;;;;;;4.30;1.67;;;21.80;99.90;;;;;;5073404;28;20725;-70
2023/05/16 05:55:57;;;;;;;1.90;1.50;;;21.70;99.90;;;;;;5073636;28;20266;-71
2023/05/16 05:58:25;;;;;;;2.23;1.77;;;21.60;99.90;;;;;;5073819;28;20172;-71
2023/05/16 06:00:52;;;;;;;8.57;1.67;;;21.50;99.90;;;;;;5073321;28;20180;-71
2023/05/16 06:03:20;;;;;;;4.53;1.37;;;21.30;99.90;;;;;;5073529;28;20272;-71
2023/05/16 06:05:47;;;;;;;2.40;1.70;;;21.30;99.90;;;;;;5073492;28;20172;-72
2023/05/16 06:08:15;;;;;;;2.67;1.80;;;21.10;99.90;;;;;;5073301;28;20681;-70
2023/05/16 06:10:42;;;;;;;5.20;2.17;;;21.00;99.90;;;;;;5072013;28;20230;-70
2023/05/16 06:13:10;;;;;;;5.33;1.63;;;20.90;99.90;;;;;;5073366;28;20215;-70
2023/05/16 06:15:37;;;;;;;3.07;1.50;;;20.70;99.90;;;;;;5073266;28;20186;-70
2023/05/16 06:18:05;;;;;;;4.20;1.87;;;20.60;99.90;;;;;;5073356;28;20260;-69
2023/05/16 06:20:32;;;;;;;3.00;1.37;;;20.50;99.90;;;;;;5073156;28;20183;-70
2023/05/16 06:22:59;;;;;;;3.13;1.77;;;20.40;99.90;;;;;;5073188;28;20222;-69
2023/05/16 06:25:27;;;;;;;2.07;1.40;;;20.30;99.90;;;;;;5073284;28;20184;-70
2023/05/16 06:27:54;;;;;;;1.90;1.60;;;20.20;99.90;;;;;;5073021;28;20190;-70
2023/05/16 06:30:22;;;;;;;3.93;1.43;;;20.10;99.90;;;;;;5072902;28;20487;-71
2023/05/16 06:32:49;;;;;;;3.03;1.30;;;20.00;99.90;;;;;;5073074;28;20233;-69
2023/05/16 06:35:17;;;;;;;2.90;1.43;;;19.80;99.90;;;;;;5072833;28;20224;-73
2023/05/16 06:37:44;;;;;;;2.83;1.37;;;19.70;99.90;;;;;;5072578;28;20203;-71
2023/05/16 06:40:12;;;;;;;2.07;1.33;;;19.60;99.90;;;;;;5072743;28;20266;-72
2023/05/16 06:42:39;;;;;;;6.20;1.50;;;19.60;99.90;;;;;;5072853;28;20648;-72
2023/05/16 06:45:08;;;;;;;4.13;1.60;;;19.50;99.90;;;;;;5072694;28;20171;-71
2023/05/16 06:47:35;;;;;;;7.27;1.77;;;19.40;99.90;;;;;;5072919;28;20186;-71
2023/05/16 06:50:02;;;;;;;7.70;2.10;;;19.40;99.90;;;;;;5072705;28;20534;-71
2023/05/16 06:52:30;;;;;;;8.27;2.53;;;19.20;99.90;;;;;;5072562;28;20637;-71
2023/05/16 06:54:58;;;;;;;7.07;2.80;;;19.20;99.90;;;;;;5072744;28;20183;-71
2023/05/16 06:57:25;;;;;;;5.93;2.30;;;19.00;99.90;;;;;;5072504;28;20179;-73
2023/05/16 06:59:52;;;;;;;2.67;1.90;;;18.80;99.90;;;;;;5072525;28;20199;-71
2023/05/16 07:02:20;;;;;;;4.37;2.47;;;18.70;99.90;;;;;;5072569;28;20167;-72
2023/05/16 07:04:47;;;;;;;4.97;2.13;;;18.70;99.90;;;;;;5072727;28;20180;-69
2023/05/16 07:07:14;;;;;;;2.97;2.10;;;18.60;99.90;;;;;;5080715;28;20542;-70
2023/05/16 07:09:42;;;;;;;5.03;2.10;;;18.40;99.90;;;;;;5072241;28;20251;-70
2023/05/16 07:12:10;;;;;;;4.90;1.80;;;18.20;99.90;;;;;;5070993;28;20207;-69
2023/05/16 07:14:37;;;;;;;5.43;1.80;;;18.10;99.90;;;;;;5070999;28;20634;-71
2023/05/16 07:17:05;;;;;;;3.37;1.70;;;18.00;99.90;;;;;;5071767;28;20305;-72
2023/05/16 07:19:32;;;;;;;4.73;2.07;;;17.90;99.90;;;;;;5071744;28;20196;-73
2023/05/16 07:22:00;;;;;;;2.43;1.73;;;17.80;99.90;;;;;;5070871;28;20179;-73
2023/05/16 07:24:27;;;;;;;2.97;1.93;;;17.60;99.90;;;;;;5071908;28;20183;-71
2023/05/16 07:26:54;;;;;;;6.23;1.70;;;17.50;99.90;;;;;;5072266;28;20651;-72
2023/05/16 07:29:22;;;;;;;4.73;1.80;;;17.40;99.90;;;;;;5073259;28;20199;-74
2023/05/16 07:31:49;;;;;;;3.27;2.07;;;17.30;99.90;;;;;;5071924;28;20179;-71
2023/05/16 07:34:17;;;;;;;3.27;1.70;;;17.10;99.90;;;;;;5071647;28;20648;-72
2023/05/16 07:36:44;;;;;;;4.23;1.90;;;17.00;99.90;;;;;;5070213;28;20235;-69
2023/05/16 07:39:12;;;;;;;3.90;2.27;;;16.90;99.90;;;;;;5070538;28;20198;-72
2023/05/16 07:41:39;;;;;;;5.17;2.30;;;16.80;99.90;;;;;;5071840;28;20212;-72
2023/05/16 07:44:07;;;;;;;5.73;2.33;;;16.70;99.90;;;;;;5071787;28;20175;-72
2023/05/16 07:46:34;;;;;;;3.13;2.00;;;16.70;99.90;;;;;;5071488;28;20179;-71
2023/05/16 07:49:01;;;;;;;4.83;2.83;;;16.50;99.90;;;;;;5071945;28;20594;-74
2023/05/16 07:51:29;;;;;;;3.90;2.27;;;16.50;99.90;;;;;;5071398;28;20663;-73
2023/05/16 07:53:56;;;;;;;6.27;2.73;;;16.40;99.90;;;;;;5071715;28;20211;-74
2023/05/16 07:56:24;;;;;;;8.43;3.10;;;16.30;99.90;;;;;;5071756;28;20184;-74
2023/05/16 07:58:52;;;;;;;6.87;3.00;;;16.20;99.90;;;;;;5071574;28;20656;-74
2023/05/16 08:01:19;;;;;;;5.63;3.30;;;16.10;99.90;;;;;;5071120;28;20192;-73
2023/05/16 08:03:47;;;;;;;5.40;2.27;;;16.00;99.90;;;;;;5071282;28;20679;-74
2023/05/16 08:06:15;;;;;;;5.00;2.63;;;15.90;99.90;;;;;;5051605;28;20215;-74
2023/05/16 08:08:42;;;;;;;4.03;2.40;;;15.80;99.90;;;;;;5069131;28;20215;-74
2023/05/16 08:11:10;;;;;;;4.93;3.03;;;15.70;99.90;;;;;;5071319;28;20187;-75
2023/05/16 08:13:37;;;;;;;3.03;2.70;;;15.60;99.90;;;;;;5071419;28;20234;-74
2023/05/16 08:16:05;;;;;;;5.30;2.33;;;15.50;99.90;;;;;;5071517;28;20176;-74
2023/05/16 08:18:32;;;;;;;4.70;2.23;;;15.50;99.90;;;;;;5074518;28;20175;-74
2023/05/16 08:20:59;;;;;;;6.17;2.40;;;15.40;99.90;;;;;;5075384;28;20547;-72
2023/05/16 08:23:27;;;;;;;5.57;3.00;;;15.20;99.90;;;;;;5075403;28;20175;-74
2023/05/16 08:25:54;;;;;;;7.30;3.43;;;15.20;99.90;;;;;;5074749;28;20254;-73
2023/05/16 08:28:22;;;;;;;5.23;2.63;;;15.10;99.90;;;;;;5075313;28;20179;-74
2023/05/16 08:30:49;;;;;;;5.73;3.67;;;14.90;99.90;;;;;;5074637;28;20182;-73
2023/05/16 08:33:17;;;;;;;6.67;3.50;;;14.90;99.90;;;;;;5075678;28;20216;-73
2023/05/16 08:35:45;;;;;;;6.30;3.30;;;14.90;99.90;;;;;;5075996;28;20287;-76
2023/05/16 08:38:12;;;;;;;5.07;3.60;;;14.90;99.90;;;;;;5075340;28;20196;-74
2023/05/16 08:40:41;;;;;;;5.40;3.30;;;14.80;99.90;;;;;;5076115;28;20176;-73
2023/05/16 08:43:09;;;;;;;12.00;4.27;;;14.70;99.90;;;;;;5076035;28;20184;-74
2023/05/16 08:45:36;;;;;;;6.93;3.83;;;14.60;99.90;;;;;;5075629;28;20186;-75
2023/05/16 08:48:05;;;;;;;8.90;4.10;;;14.60;99.90;;;;;;5075821;28;20172;-74
2023/05/16 08:50:35;;;;;;;5.80;3.63;;;14.50;99.90;;;;;;5075541;28;20180;-71
2023/05/16 08:53:10;;;;;;;6.47;4.10;;;14.50;99.90;;;;;;5075845;28;20254;-76
2023/05/16 08:55:42;;;;;;;7.17;4.40;;;14.40;99.90;;;;;;5075713;28;20209;-74
2023/05/16 08:58:09;;;;;;;5.97;4.27;;;14.40;99.90;;;;;;5074468;28;20194;-74
2023/05/16 09:00:37;;;;;;;8.97;4.00;;;14.30;99.90;;;;;;5073985;28;20279;-74
2023/05/16 09:03:05;;;;;;;9.60;5.87;;;14.30;99.90;;;;;;5075546;28;20621;-74
2023/05/16 09:05:33;;;;;;;10.30;6.00;;;14.30;99.90;;;;;;5075219;28;20183;-75
2023/05/16 09:08:01;;;;;;;11.13;6.77;;;14.20;99.90;;;;;;5075647;28;20245;-74
2023/05/16 09:10:28;;;;;;;8.33;5.93;;;14.30;99.90;;;;;;5075418;28;20194;-75
2023/05/16 09:12:56;;;;;;;9.60;6.80;;;14.30;99.90;;;;;;5075064;28;20664;-74
2023/05/16 09:15:30;;;;;;;9.37;6.60;;;14.20;99.90;;;;;;5075334;28;20211;-73
2023/05/16 09:18:01;;;;;;;11.67;7.10;;;14.20;99.90;;;;;;5075213;28;20215;-74
2023/05/16 09:20:30;;;;;;;11.50;7.23;;;14.10;99.90;;;;;;5075256;28;20233;-74
2023/05/16 09:22:59;;;;;;;13.10;7.30;;;14.00;99.90;;;;;;5075174;28;20202;-73
2023/05/16 09:25:28;;;;;;;9.60;6.63;;;14.00;99.90;;;;;;5075339;28;20266;-74
2023/05/16 09:27:57;;;;;;;10.50;7.50;;;14.00;99.90;;;;;;5074870;28;20590;-74
2023/05/16 09:30:35;;;;;;;11.27;6.83;;;13.90;99.90;;;;;;5072712;28;20191;-74
2023/05/16 09:33:05;;;;;;;12.77;6.93;;;13.80;99.90;;;;;;5074844;28;20289;-75
2023/05/16 09:35:33;;;;;;;8.73;5.83;;;13.80;99.90;;;;;;5074419;28;20224;-72
2023/05/16 09:38:00;;;;;;;7.37;6.23;;;13.70;99.90;;;;;;5075212;28;20659;-74
2023/05/16 09:40:27;;;;;;;10.07;5.70;;;13.70;99.90;;;;;;5074931;28;20179;-73
2023/05/16 09:43:07;;;;;;;6.23;5.03;;;13.70;99.90;;;;;;5074768;28;20183;-74
2023/05/16 09:45:36;;;;;;;7.00;5.20;;;13.70;99.90;;;;;;5074932;28;20183;-73
2023/05/16 09:48:08;;;;;;;9.47;5.57;;;13.60;99.90;;;;;;5074841;28;20187;-72
2023/05/16 09:50:37;;;;;;;9.23;6.30;;;13.50;99.90;;;;;;5074084;28;20246;-73
2023/05/16 09:53:05;;;;;;;9.87;5.57;;;13.50;99.90;;;;;;5073223;28;20707;-74
2023/05/16 09:55:33;;;;;;;10.07;6.40;;;13.40;99.90;;;;;;5073457;28;20528;-74
2023/05/16 09:58:03;;;;;;;7.97;5.83;;;13.40;99.90;;;;;;5074369;28;20602;-74
2023/05/16 10:00:32;;;;;;;11.30;6.07;;;13.30;99.90;;;;;;5073416;28;20176;-74
2023/05/16 10:03:02;;;;;;;10.40;6.37;;;13.30;99.90;;;;;;5074891;28;20271;-74
2023/05/16 10:05:30;;;;;;;11.37;6.00;;;13.20;99.90;;;;;;5074453;28;20611;-74
2023/05/16 10:07:58;;;;;;;7.63;5.70;;;13.20;99.90;;;;;;5074273;28;20186;-74
2023/05/16 10:10:27;;;;;;;10.40;6.33;;;13.10;99.90;;;;;;5074208;28;20175;-74
2023/05/16 10:12:58;;;;;;;13.50;6.10;;;13.10;99.90;;;;;;5056751;28;20645;-74
2023/05/16 10:15:27;;;;;;;10.03;5.70;;;13.10;99.90;;;;;;5074454;28;20172;-76
2023/05/16 10:18:00;;;;;;;8.40;5.37;;;13.00;99.90;;;;;;5074289;28;20183;-74
2023/05/16 10:20:28;;;;;;;8.77;5.60;;;13.00;99.90;;;;;;5073980;28;20263;-74
2023/05/16 10:22:57;;;;;;;9.47;6.17;;;13.00;99.90;;;;;;5073968;28;20217;-74
2023/05/16 10:25:27;;;;;;;9.20;5.67;;;12.90;99.90;;;;;;5074098;28;20218;-74
2023/05/16 10:27:55;;;;;;;7.83;5.27;;;13.00;99.90;;;;;;5073994;28;20182;-73
2023/05/16 10:30:23;;;;;;;10.17;5.37;;;13.00;99.90;;;;;;5073637;28;20220;-72
2023/05/16 10:32:51;;;;;;;11.63;5.70;;;12.90;99.90;;;;;;5073940;28;20207;-74
2023/05/16 10:35:19;;;;;;;9.80;6.00;;;12.90;99.90;;;;;;5073451;28;20259;-74
2023/05/16 10:37:47;;;;;;;8.77;5.50;;;12.90;99.90;;;;;;5073932;28;20190;-74
2023/05/16 10:40:16;;;;;;;7.87;5.43;;;12.90;99.90;;;;;;5073165;28;20171;-74
2023/05/16 10:43:03;;;;;;;6.93;5.40;;;12.90;99.90;;;;;;5072045;28;20187;-73
2023/05/16 10:45:31;;;;;;;8.97;5.57;;;12.90;99.90;;;;;;5073687;28;20167;-73
2023/05/16 10:48:00;;;;;;;9.07;4.47;;;12.90;99.90;;;;;;5073226;28;20187;-74
2023/05/16 10:50:32;;;;;;;9.70;6.00;;;12.90;99.90;;;;;;5072161;28;20187;-73
2023/05/16 10:53:18;;;;;;;6.63;5.27;;;13.00;99.90;;;;;;5072165;28;20265;-73
2023/05/16 10:56:01;;;;;;;9.50;5.03;;;13.00;99.90;;;;;;5073382;28;20207;-74
2023/05/16 10:58:38;;;;;;;10.93;5.50;;;13.00;99.90;;;;;;5073224;28;20186;-74
2023/05/16 11:01:23;;;;;;;7.87;5.20;;;13.00;99.90;;;;;;5073325;28;20178;-71
2023/05/16 11:03:59;;;;;;;9.37;5.20;;;13.00;99.90;;;;;;5073264;28;20182;-70
2023/05/16 11:06:49;;;;;;;8.73;5.20;;;13.10;99.90;;;;;;5073226;28;20179;-71
2023/05/16 11:09:26;;;;;;;6.73;5.03;;;13.20;99.90;;;;;;5073292;28;20194;-71
2023/05/16 11:12:02;;;;;;;10.47;5.47;;;13.20;99.90;;;;;;5073185;28;20187;-69
2023/05/16 11:14:32;;;;;;;12.20;5.90;;;13.30;99.90;;;;;;5072982;28;20213;-71
2023/05/16 11:17:22;;;;;;;9.63;5.20;;;13.30;99.90;;;;;;5073083;28;20254;-69
2023/05/16 11:19:59;;;;;;;7.00;4.27;;;13.40;99.90;;;;;;5073007;28;20179;-72
2023/05/16 11:22:29;;;;;;;6.70;4.80;;;13.40;99.90;;;;;;5073124;28;20636;-70
2023/05/16 11:25:08;;;;;;;6.50;4.70;;;13.50;99.90;;;;;;5072872;28;20545;-71
2023/05/16 11:27:46;;;;;;;9.90;5.30;;;13.50;99.90;;;;;;5073056;28;20215;-73
2023/05/16 11:30:20;;;;;;;6.00;4.50;;;13.50;99.90;;;;;;5072899;28;20199;-74
2023/05/16 11:32:49;;;;;;;6.77;4.60;;;13.40;99.90;;;;;;5072900;28;20214;-74
2023/05/16 11:35:18;;;;;;;5.83;4.27;;;13.30;99.90;;;;;;5071500;28;20270;-69
2023/05/16 11:37:47;;;;;;;7.37;3.93;;;13.20;99.90;;;;;;5066819;28;20194;-74
2023/05/16 11:40:15;;;;;;;5.83;3.83;;;13.20;99.90;;;;;;5072694;28;20180;-74
2023/05/16 11:42:46;;;;;;;5.27;3.70;;;13.10;99.90;;;;;;5072146;28;20187;-74
2023/05/16 11:45:20;;;;;;;8.13;3.70;;;13.00;99.90;;;;;;5072783;28;20191;-75
2023/05/16 11:47:48;;;;;;;8.37;4.30;;;13.00;99.90;;;;;;5071609;28;20280;-74
2023/05/16 11:50:18;;;;;;;5.67;3.80;;;12.90;99.90;;;;;;5072738;28;20170;-74
2023/05/16 11:52:49;;;;;;;6.73;4.00;;;12.90;99.90;;;;;;5072348;28;20210;-73
2023/05/16 11:55:20;;;;;;;5.33;3.80;;;12.80;99.90;;;;;;5072216;28;20180;-74
2023/05/16 11:57:50;;;;;;;8.07;3.43;;;12.80;99.90;;;;;;5072013;28;20644;-73
2023/05/16 12:00:20;;;;;;;4.07;3.53;;;12.80;99.90;;;;;;5072498;28;20183;-74
2023/05/16 12:02:52;;;;;;;5.80;3.60;;;12.70;99.90;;;;;;5072342;28;20192;-74
2023/05/16 12:05:25;;;;;;;4.80;3.33;;;12.70;99.90;;;;;;5072488;28;20179;-75
2023/05/16 12:07:53;;;;;;;6.47;3.60;;;12.70;99.90;;;;;;5070768;28;20201;-73
2023/05/16 12:10:21;;;;;;;5.23;3.50;;;12.70;99.90;;;;;;5072117;28;20186;-74
2023/05/16 12:12:51;;;;;;;5.13;3.33;;;12.70;99.90;;;;;;5072337;28;20308;-74
2023/05/16 12:15:20;;;;;;;6.40;3.33;;;12.80;99.90;;;;;;5072665;28;20178;-74
2023/05/16 12:17:49;;;;;;;5.73;3.50;;;12.90;99.90;;;;;;5072381;28;20194;-74
2023/05/16 12:20:18;;;;;;;5.80;3.30;;;13.10;99.90;;;;;;5071962;28;20183;-73
2023/05/16 12:22:49;;;;;;;7.13;3.47;;;13.30;99.90;;;;;;5071934;28;20257;-74
2023/05/16 12:25:30;;;;;;;8.37;4.57;;;13.40;99.90;;;;;;5070780;28;20644;-73
2023/05/16 12:28:03;;;;;;;4.80;3.27;;;13.60;99.90;;;;;;5072303;28;20264;-74
2023/05/16 12:30:32;;;;;;;6.13;4.30;;;13.80;99.90;;;;;;5072062;28;20186;-75
2023/05/16 12:33:14;;;;;;;10.50;4.53;;;13.80;99.90;;;;;;5071876;28;20216;-74
2023/05/16 12:35:46;;;;;;;7.60;3.70;;;13.90;99.90;;;;;;5072047;28;20211;-74
2023/05/16 12:38:20;;;;;;;11.03;4.20;;;14.00;99.90;;;;;;5072267;28;20287;-74
2023/05/16 12:40:48;;;;;;;6.40;3.83;;;14.00;99.90;;;;;;5071506;28;20179;-73
2023/05/16 12:43:20;;;;;;;9.70;3.57;;;14.00;99.90;;;;;;5072050;28;20264;-73
2023/05/16 12:45:57;;;;;;;6.17;3.10;;;14.20;99.90;;;;;;5070136;28;20183;-75
2023/05/16 12:48:32;;;;;;;7.90;3.73;;;14.40;99.90;;;;;;5072375;28;20278;-74
2023/05/16 12:51:13;;;;;;;6.03;3.30;;;14.50;99.90;;;;;;5071846;28;20191;-73
2023/05/16 12:53:48;;;;;;;6.67;3.80;;;14.60;99.90;;;;;;5058150;28;20276;-74
2023/05/16 12:56:16;;;;;;;6.87;3.70;;;14.70;99.90;;;;;;5070664;28;20211;-74
2023/05/16 12:58:44;;;;;;;6.80;2.83;;;14.70;99.90;;;;;;5071901;28;20180;-74
2023/05/16 13:01:16;;;;;;;6.20;3.07;;;14.80;99.90;;;;;;5071948;28;20176;-74